To NAV CANADA Home Page Login to a new session Search on AWWS site Feedback and Comments Disclaimer Vers la page française équivalente Tips FAQ What's new on the site To the Forecasts and Observations / NOTAM section To "File a Flight Plan" website Publications and other links Update of the User's profile FIC Telephone Numbers My Weather Data Folder Route Weather Data Regional Weather Data Local Weather Data To the Forecasts and Observations / NOTAM section
Request Generated 05/27/2015 at 01:32:28 UTC . Weather information available at that time is displayed.

METAR/TAF

COLD LAKE/GROUP CAPTAIN R.W. MCNAIR/AB    

METAR CYOD 270100Z 06009KT 15SM FEW056 BKN250 20/01 A2996 RMK FU2CI1 SLP155=
METAR CYOD 270000Z 05009G15KT 15SM SCT056 BKN250 20/03 A2996 RMK FU2CI1 SLP156=
METAR CYOD 262300Z CCA 04012KT 12SM SCT250 20/03 A2996 RMK CI2 FU ALQDS SLP155=
METAR CYOD 262300Z 04012KT 12SM SCT250 20/03 A2996 RMK CI2 SLP155=

TAF CYOD 262330Z 2700/2724 04012KT P6SM FEW250
FM270500 04005KT P6SM SKC
FM271700 12005KT P6SM FEW090
RMK NXT FCST BY 270300Z=
Your time UTC time
Weather data provided by Environment Canada and NAV CANADA